Time;durP1;ratioP1;P1;durP2;ratioP2;P2;SDS_P1;SDS_P2;PMS_P1;PMS_P2;Temp;Humidity;BMP_temperature;BMP_pressure;BME280_temperature;BME280_humidity;BME280_pressure;Samples;Min_cycle;Max_cycle;Signal;HPM_P1;HPM_P2
2023/04/13 00:01:20;;;;;;;;;33.50;32.75;;;;;;;;5209291;28;8808;-71
2023/04/13 00:04:09;;;;;;;;;24.60;24.40;;;;;;;;5242741;28;8785;-70
2023/04/13 00:06:41;;;;;;;;;33.80;32.40;;;;;;;;5211201;28;8829;-70
2023/04/13 00:09:13;;;;;;;;;38.60;35.00;;;;;;;;5240793;28;8822;-70
2023/04/13 00:11:45;;;;;;;;;28.00;28.00;;;;;;;;5224848;28;8782;-69
2023/04/13 00:14:19;;;;;;;;;36.00;33.40;;;;;;;;5225553;28;8848;-69
2023/04/13 00:16:50;;;;;;;;;20.60;20.00;;;;;;;;5225744;28;8785;-69
2023/04/13 00:19:22;;;;;;;;;7.40;7.00;;;;;;;;5242196;28;9552;-69
2023/04/13 00:21:53;;;;;;;;;26.80;26.80;;;;;;;;5242030;28;8797;-69
2023/04/13 00:24:43;;;;;;;;;20.80;20.80;;;;;;;;5225870;28;8786;-69
2023/04/13 00:27:34;;;;;;;;;10.60;10.60;;;;;;;;5245255;28;8800;-69
2023/04/13 00:30:12;;;;;;;;;7.00;7.00;;;;;;;;5229431;28;8787;-70
2023/04/13 00:32:43;;;;;;;;;7.20;6.80;;;;;;;;5245967;28;8799;-70
2023/04/13 00:35:18;;;;;;;;;12.60;12.00;;;;;;;;5229308;28;8858;-72
2023/04/13 00:37:50;;;;;;;;;9.40;9.00;;;;;;;;5245793;28;8791;-69
2023/04/13 00:40:21;;;;;;;;;11.00;10.60;;;;;;;;5228638;28;8794;-69
2023/04/13 00:42:52;;;;;;;;;7.00;7.00;;;;;;;;5247029;28;8803;-69
2023/04/13 00:45:23;;;;;;;;;6.00;6.00;;;;;;;;5237396;28;8802;-69
2023/04/13 00:47:57;;;;;;;;;8.00;8.00;;;;;;;;5225026;28;8786;-70
2023/04/13 00:50:28;;;;;;;;;7.00;7.00;;;;;;;;5226402;28;11480;-70
2023/04/13 00:52:59;;;;;;;;;4.00;4.00;;;;;;;;5224916;28;8818;-70
2023/04/13 00:55:30;;;;;;;;;10.00;10.00;;;;;;;;5224822;28;11471;-69
2023/04/13 00:58:01;;;;;;;;;7.60;7.60;;;;;;;;5224846;28;8805;-69
2023/04/13 01:00:33;;;;;;;;;7.80;7.80;;;;;;;;5235680;28;8776;-70
2023/04/13 01:03:03;;;;;;;;;12.20;11.60;;;;;;;;5246639;28;8794;-69
2023/04/13 01:05:42;;;;;;;;;12.60;12.60;;;;;;;;5223726;28;8816;-70
2023/04/13 01:08:38;;;;;;;;;11.60;11.60;;;;;;;;5210999;28;8799;-69
2023/04/13 01:11:12;;;;;;;;;17.40;17.40;;;;;;;;5208325;28;8798;-69
2023/04/13 01:13:46;;;;;;;;;13.20;13.20;;;;;;;;5225905;28;8793;-70
2023/04/13 01:16:19;;;;;;;;;14.60;13.20;;;;;;;;5225738;28;8781;-69
2023/04/13 01:18:52;;;;;;;;;17.80;17.00;;;;;;;;5228530;28;8795;-69
2023/04/13 01:21:42;;;;;;;;;11.20;9.80;;;;;;;;5245461;28;8849;-70
2023/04/13 01:24:37;;;;;;;;;2.40;2.20;;;;;;;;5233686;28;8793;-70
2023/04/13 01:27:45;;;;;;;;;9.60;9.60;;;;;;;;5224983;28;8855;-71
2023/04/13 01:30:21;;;;;;;;;3.40;3.40;;;;;;;;5208182;28;8808;-71
2023/04/13 01:33:11;;;;;;;;;6.00;6.00;;;;;;;;5223899;28;8833;-71
2023/04/13 01:36:02;;;;;;;;;8.80;8.80;;;;;;;;5225778;28;8855;-70
2023/04/13 01:38:35;;;;;;;;;16.20;16.20;;;;;;;;5208162;28;8867;-70
2023/04/13 01:41:07;;;;;;;;;13.80;13.80;;;;;;;;5207915;28;8847;-69
2023/04/13 01:43:41;;;;;;;;;13.00;12.20;;;;;;;;5216847;28;8773;-69
2023/04/13 01:46:13;;;;;;;;;8.80;8.40;;;;;;;;5207827;28;8798;-70
2023/04/13 01:49:03;;;;;;;;;11.40;8.80;;;;;;;;5224390;28;8814;-70
2023/04/13 01:51:55;;;;;;;;;8.00;8.00;;;;;;;;5224153;28;8797;-69
2023/04/13 01:54:32;;;;;;;;;3.00;3.00;;;;;;;;5207904;28;8837;-69
2023/04/13 01:57:04;;;;;;;;;6.80;6.80;;;;;;;;5241886;28;8789;-70
2023/04/13 01:59:37;;;;;;;;;5.00;5.00;;;;;;;;5244932;28;9623;-71
2023/04/13 02:02:08;;;;;;;;;1.00;1.00;;;;;;;;5239674;28;9536;-71
2023/04/13 02:04:58;;;;;;;;;5.80;5.80;;;;;;;;5224572;28;8913;-71
2023/04/13 02:07:31;;;;;;;;;1.60;1.60;;;;;;;;5224168;28;8782;-71
2023/04/13 02:10:04;;;;;;;;;3.00;3.00;;;;;;;;5207753;28;8781;-71
2023/04/13 02:12:36;;;;;;;;;2.00;2.00;;;;;;;;5226335;28;8912;-73
2023/04/13 02:15:26;;;;;;;;;6.80;6.60;;;;;;;;5240631;28;8787;-71
2023/04/13 02:17:58;;;;;;;;;54.60;46.60;;;;;;;;5211312;28;8776;-71
2023/04/13 02:20:32;;;;;;;;;13.75;13.00;;;;;;;;5242574;28;8806;-70
2023/04/13 02:23:03;;;;;;;;;2.00;2.00;;;;;;;;5207900;28;11453;-71
2023/04/13 02:25:34;;;;;;;;;2.00;2.00;;;;;;;;5202415;28;8798;-71
2023/04/13 02:28:07;;;;;;;;;2.00;2.00;;;;;;;;5214612;28;8805;-71
2023/04/13 02:30:38;;;;;;;;;2.00;2.00;;;;;;;;5206966;28;8789;-70
2023/04/13 02:33:09;;;;;;;;;2.00;2.00;;;;;;;;5223387;28;8849;-70
2023/04/13 02:35:41;;;;;;;;;2.00;2.00;;;;;;;;5207975;28;8813;-71
2023/04/13 02:38:12;;;;;;;;;2.00;2.00;;;;;;;;5213010;28;8893;-70
2023/04/13 02:40:48;;;;;;;;;3.00;3.00;;;;;;;;5230022;28;8811;-70
2023/04/13 02:43:19;;;;;;;;;1.60;1.60;;;;;;;;5227083;28;8928;-70
2023/04/13 02:46:09;;;;;;;;;2.00;2.00;;;;;;;;5217822;28;8798;-71
2023/04/13 02:48:44;;;;;;;;;2.00;2.00;;;;;;;;5228443;28;8770;-71
2023/04/13 02:51:15;;;;;;;;;1.00;1.00;;;;;;;;5236140;28;8805;-70
2023/04/13 02:53:48;;;;;;;;;3.20;3.20;;;;;;;;5214618;28;8842;-70
2023/04/13 02:56:21;;;;;;;;;2.00;2.00;;;;;;;;5214388;28;8771;-71
2023/04/13 02:59:10;;;;;;;;;1.40;1.40;;;;;;;;5216847;28;8797;-72
2023/04/13 03:01:44;;;;;;;;;69.80;54.60;;;;;;;;5213595;28;8839;-71
2023/04/13 03:04:17;;;;;;;;;7.20;7.20;;;;;;;;5209196;28;8789;-72
2023/04/13 03:07:09;;;;;;;;;2.20;2.20;;;;;;;;5226770;28;8761;-70
2023/04/13 03:10:01;;;;;;;;;2.00;2.00;;;;;;;;5211480;28;8806;-71
2023/04/13 03:12:34;;;;;;;;;3.00;3.00;;;;;;;;5208915;28;8801;-72
2023/04/13 03:15:07;;;;;;;;;2.00;2.00;;;;;;;;5215531;28;8809;-71
2023/04/13 03:17:40;;;;;;;;;7.60;6.40;;;;;;;;5225731;28;8790;-70
2023/04/13 03:20:15;;;;;;;;;4.00;3.60;;;;;;;;5226332;28;8798;-72
2023/04/13 03:22:57;;;;;;;;;8.00;8.00;;;;;;;;5209813;28;8870;-70
2023/04/13 03:25:29;;;;;;;;;5.00;5.00;;;;;;;;5226742;28;8866;-70
2023/04/13 03:28:00;;;;;;;;;4.00;4.00;;;;;;;;5209216;28;8812;-69
2023/04/13 03:30:50;;;;;;;;;4.40;4.40;;;;;;;;5212323;28;8801;-70
2023/04/13 03:33:21;;;;;;;;;4.60;4.60;;;;;;;;5226677;28;8822;-71
2023/04/13 03:35:52;;;;;;;;;4.00;4.00;;;;;;;;5225707;28;8786;-71
2023/04/13 03:38:31;;;;;;;;;2.80;2.80;;;;;;;;5209502;28;8800;-71
2023/04/13 03:41:02;;;;;;;;;4.60;4.60;;;;;;;;5226048;28;8915;-71
2023/04/13 03:43:35;;;;;;;;;24.80;24.40;;;;;;;;5226789;28;8843;-71
2023/04/13 03:46:11;;;;;;;;;7.80;7.80;;;;;;;;5246644;28;8779;-73
2023/04/13 03:48:43;;;;;;;;;12.40;12.40;;;;;;;;5237062;28;9529;-69
2023/04/13 03:51:18;;;;;;;;;28.00;27.60;;;;;;;;5209703;28;8813;-69
2023/04/13 03:53:54;;;;;;;;;20.20;20.00;;;;;;;;5246682;28;8943;-69
2023/04/13 03:56:29;;;;;;;;;39.60;36.60;;;;;;;;5230164;28;9595;-70
2023/04/13 03:59:19;;;;;;;;;46.20;38.00;;;;;;;;5232738;28;8855;-69
2023/04/13 04:01:51;;;;;;;;;18.40;18.40;;;;;;;;5246726;28;8795;-69
2023/04/13 04:04:22;;;;;;;;;7.60;7.60;;;;;;;;5248005;28;8856;-69
2023/04/13 04:06:56;;;;;;;;;7.80;7.80;;;;;;;;5223861;28;8883;-69
2023/04/13 04:09:28;;;;;;;;;16.20;16.20;;;;;;;;5227474;28;8813;-69
2023/04/13 04:12:01;;;;;;;;;14.80;14.80;;;;;;;;5225730;28;8789;-68
2023/04/13 04:14:43;;;;;;;;;17.80;16.00;;;;;;;;5210803;28;8785;-71
2023/04/13 04:17:32;;;;;;;;;9.20;8.80;;;;;;;;5211693;28;8794;-72
2023/04/13 04:20:05;;;;;;;;;4.80;4.80;;;;;;;;5209149;28;8782;-71
2023/04/13 04:22:37;;;;;;;;;8.40;8.40;;;;;;;;5209165;28;9500;-69
2023/04/13 04:25:10;;;;;;;;;9.40;9.40;;;;;;;;5203385;28;8860;-69
2023/04/13 04:27:45;;;;;;;;;6.60;6.20;;;;;;;;5225572;28;8923;-70
2023/04/13 04:30:21;;;;;;;;;3.60;3.60;;;;;;;;5225813;28;8879;-70
2023/04/13 04:32:53;;;;;;;;;6.20;6.20;;;;;;;;5225216;28;8849;-74
2023/04/13 04:35:50;;;;;;;;;0.60;0.60;;;;;;;;5211278;28;8874;-73
2023/04/13 04:38:25;;;;;;;;;4.80;4.80;;;;;;;;5208687;28;8797;-73
2023/04/13 04:41:19;;;;;;;;;0.80;0.80;;;;;;;;5225265;28;8787;-74
2023/04/13 04:43:55;;;;;;;;;3.60;3.60;;;;;;;;5229768;28;8807;-74
2023/04/13 04:46:47;;;;;;;;;4.00;4.00;;;;;;;;5242253;28;9573;-73
2023/04/13 04:49:21;;;;;;;;;2.00;2.00;;;;;;;;5230797;28;8802;-74
2023/04/13 04:51:57;;;;;;;;;0.00;0.00;;;;;;;;5223227;28;8812;-74
2023/04/13 04:54:28;;;;;;;;;2.00;2.00;;;;;;;;5206701;28;8900;-73
2023/04/13 04:57:00;;;;;;;;;2.40;2.00;;;;;;;;5206131;28;8786;-73
2023/04/13 04:59:33;;;;;;;;;1.00;1.00;;;;;;;;5205784;28;8778;-73
2023/04/13 05:02:23;;;;;;;;;1.00;1.00;;;;;;;;5209105;28;8785;-74
2023/04/13 05:04:54;;;;;;;;;4.00;4.00;;;;;;;;5242432;28;8811;-73
2023/04/13 05:07:28;;;;;;;;;2.40;2.40;;;;;;;;5239751;28;8848;-74
2023/04/13 05:09:59;;;;;;;;;2.40;2.40;;;;;;;;5222895;28;8786;-73
2023/04/13 05:12:30;;;;;;;;;2.80;2.80;;;;;;;;5222860;28;8805;-76
2023/04/13 05:15:03;;;;;;;;;3.80;3.80;;;;;;;;5206438;28;8882;-75
2023/04/13 05:17:35;;;;;;;;;2.60;2.60;;;;;;;;5206237;28;8790;-75
2023/04/13 05:20:07;;;;;;;;;4.00;4.00;;;;;;;;5206290;28;9631;-75
2023/04/13 05:23:01;;;;;;;;;0.00;0.00;;;;;;;;5219094;28;8836;-75
2023/04/13 05:25:32;;;;;;;;;1.00;1.00;;;;;;;;5206285;28;8798;-75
2023/04/13 05:28:09;;;;;;;;;3.20;3.00;;;;;;;;5238040;28;8811;-79
2023/04/13 05:30:40;;;;;;;;;2.00;2.00;;;;;;;;5226643;28;9652;-74
2023/04/13 05:33:11;;;;;;;;;2.00;2.00;;;;;;;;5242537;28;8846;-74
2023/04/13 05:35:44;;;;;;;;;0.40;0.40;;;;;;;;5243461;28;8826;-72
2023/04/13 05:38:16;;;;;;;;;0.20;0.20;;;;;;;;5226757;28;8779;-79
2023/04/13 05:40:47;;;;;;;;;0.00;0.00;;;;;;;;5210225;28;8775;-77
2023/04/13 05:43:20;;;;;;;;;0.00;0.00;;;;;;;;5222172;28;9530;-75
2023/04/13 05:46:10;;;;;;;;;0.00;0.00;;;;;;;;5222187;28;8806;-76
2023/04/13 05:48:42;;;;;;;;;2.00;2.00;;;;;;;;5238951;28;8809;-74
2023/04/13 05:51:15;;;;;;;;;4.60;4.60;;;;;;;;5222320;28;8874;-74
2023/04/13 05:53:48;;;;;;;;;1.00;1.00;;;;;;;;5205975;28;8911;-74
2023/04/13 05:56:20;;;;;;;;;15.80;14.60;;;;;;;;5205720;28;8871;-74
2023/04/13 05:58:52;;;;;;;;;0.00;0.00;;;;;;;;5205841;28;8785;-72
2023/04/13 06:01:31;;;;;;;;;2.00;2.00;;;;;;;;5207260;28;8814;-72
2023/04/13 06:04:02;;;;;;;;;1.40;1.40;;;;;;;;5222417;28;8801;-75
2023/04/13 06:06:53;;;;;;;;;1.00;1.00;;;;;;;;5222454;28;8805;-73
2023/04/13 06:09:26;;;;;;;;;1.40;1.40;;;;;;;;5219262;28;8936;-75
2023/04/13 06:12:17;;;;;;;;;2.00;2.00;;;;;;;;5212603;28;8809;-77
2023/04/13 06:14:47;;;;;;;;;2.00;2.00;;;;;;;;5226199;28;8817;-75
2023/04/13 06:17:19;;;;;;;;;0.50;0.50;;;;;;;;5226216;28;8821;-74
2023/04/13 06:19:50;;;;;;;;;3.00;2.40;;;;;;;;5209824;28;9560;-74
2023/04/13 06:22:21;;;;;;;;;3.00;3.00;;;;;;;;5192927;28;8797;-74
2023/04/13 06:24:52;;;;;;;;;4.00;4.00;;;;;;;;5225772;28;8796;-74
2023/04/13 06:27:23;;;;;;;;;0.60;0.60;;;;;;;;5195950;28;8812;-74
2023/04/13 06:29:56;;;;;;;;;0.00;0.00;;;;;;;;5225458;28;8912;-74
2023/04/13 06:32:28;;;;;;;;;2.00;2.00;;;;;;;;5225408;28;8817;-75
2023/04/13 06:34:59;;;;;;;;;0.60;0.60;;;;;;;;5197162;28;8831;-74
2023/04/13 06:37:35;;;;;;;;;0.00;0.00;;;;;;;;5220058;28;8816;-74
2023/04/13 06:40:11;;;;;;;;;0.00;0.00;;;;;;;;5228144;28;8862;-75
2023/04/13 06:42:47;;;;;;;;;0.00;0.00;;;;;;;;5227762;28;8914;-75
2023/04/13 06:45:47;;;;;;;;;2.00;2.00;;;;;;;;5214257;28;8797;-74
2023/04/13 06:48:25;;;;;;;;;0.00;0.00;;;;;;;;5195782;28;8777;-75
2023/04/13 06:51:14;;;;;;;;;1.20;1.20;;;;;;;;5213346;28;8992;-74
2023/04/13 06:53:46;;;;;;;;;2.00;2.00;;;;;;;;5227236;28;8844;-74
2023/04/13 06:56:17;;;;;;;;;0.40;0.40;;;;;;;;5211300;28;8762;-75
2023/04/13 06:58:49;;;;;;;;;0.00;0.00;;;;;;;;5228102;28;8872;-77
2023/04/13 07:01:20;;;;;;;;;2.00;2.00;;;;;;;;5236575;28;8815;-74
2023/04/13 07:03:51;;;;;;;;;0.00;0.00;;;;;;;;5201669;28;11502;-74
2023/04/13 07:06:23;;;;;;;;;1.60;1.60;;;;;;;;5194178;28;8797;-70
2023/04/13 07:08:56;;;;;;;;;1.80;1.80;;;;;;;;5227829;28;8912;-70
2023/04/13 07:11:45;;;;;;;;;2.00;2.00;;;;;;;;5226964;28;8774;-70
2023/04/13 07:14:19;;;;;;;;;7.00;7.00;;;;;;;;5228124;28;8802;-70
2023/04/13 07:16:51;;;;;;;;;0.00;0.00;;;;;;;;5226949;28;8780;-70
2023/04/13 07:19:48;;;;;;;;;5.20;5.20;;;;;;;;5227034;28;8770;-70
2023/04/13 07:22:21;;;;;;;;;2.00;2.00;;;;;;;;5227232;28;8804;-70
2023/04/13 07:24:53;;;;;;;;;2.80;2.80;;;;;;;;5209962;28;8790;-70
2023/04/13 07:27:24;;;;;;;;;1.80;1.80;;;;;;;;5210107;28;8770;-70
2023/04/13 07:29:56;;;;;;;;;6.00;6.00;;;;;;;;5230208;28;8848;-72
2023/04/13 07:32:45;;;;;;;;;0.00;0.00;;;;;;;;5227584;28;8903;-72
2023/04/13 07:35:16;;;;;;;;;0.00;0.00;;;;;;;;5210178;28;8769;-72
2023/04/13 07:37:49;;;;;;;;;0.00;0.00;;;;;;;;5226474;28;8867;-72
2023/04/13 07:40:20;;;;;;;;;1.20;1.20;;;;;;;;5209970;28;8786;-73
2023/04/13 07:42:55;;;;;;;;;0.00;0.00;;;;;;;;5226452;28;8782;-73
2023/04/13 07:45:30;;;;;;;;;0.00;0.00;;;;;;;;5227181;28;8904;-73
2023/04/13 07:48:01;;;;;;;;;0.80;0.80;;;;;;;;5214543;28;8904;-72
2023/04/13 07:50:38;;;;;;;;;0.00;0.00;;;;;;;;5226502;28;8778;-72
2023/04/13 07:53:10;;;;;;;;;1.00;1.00;;;;;;;;5228909;28;8921;-70
2023/04/13 07:55:41;;;;;;;;;1.20;1.20;;;;;;;;5230721;28;8918;-73
2023/04/13 07:58:13;;;;;;;;;0.40;0.40;;;;;;;;5214953;28;8801;-72
2023/04/13 08:00:45;;;;;;;;;0.00;0.00;;;;;;;;5210820;28;8774;-72
2023/04/13 08:03:16;;;;;;;;;2.20;2.00;;;;;;;;5226464;28;8804;-71
2023/04/13 08:05:50;;;;;;;;;1.00;1.00;;;;;;;;5210378;28;8808;-69
2023/04/13 08:08:40;;;;;;;;;0.00;0.00;;;;;;;;5227787;28;9595;-68
2023/04/13 08:11:11;;;;;;;;;0.60;0.60;;;;;;;;5227031;28;8785;-68
2023/04/13 08:13:44;;;;;;;;;3.00;3.00;;;;;;;;5225739;28;8809;-69
2023/04/13 08:16:16;;;;;;;;;0.00;0.00;;;;;;;;5209554;28;8839;-68
2023/04/13 08:18:47;;;;;;;;;0.00;0.00;;;;;;;;5226021;28;8769;-69
2023/04/13 08:21:39;;;;;;;;;0.00;0.00;;;;;;;;5233502;28;9603;-71
2023/04/13 08:24:11;;;;;;;;;0.00;0.00;;;;;;;;5248261;28;8821;-72
2023/04/13 08:26:43;;;;;;;;;2.40;2.40;;;;;;;;5227255;28;8892;-72
2023/04/13 08:29:14;;;;;;;;;0.00;0.00;;;;;;;;5209330;28;9559;-71
2023/04/13 08:32:04;;;;;;;;;0.00;0.00;;;;;;;;5228469;28;8856;-71
2023/04/13 08:34:54;;;;;;;;;0.00;0.00;;;;;;;;5212943;28;8797;-72
2023/04/13 08:37:26;;;;;;;;;0.00;0.00;;;;;;;;5225753;28;9562;-72
2023/04/13 08:39:59;;;;;;;;;0.00;0.00;;;;;;;;5208769;28;8781;-71
2023/04/13 08:42:31;;;;;;;;;0.00;0.00;;;;;;;;5243209;28;8799;-72
2023/04/13 08:45:02;;;;;;;;;0.00;0.00;;;;;;;;5227184;28;9498;-72
2023/04/13 08:47:35;;;;;;;;;0.00;0.00;;;;;;;;5192647;28;8986;-72
2023/04/13 08:50:24;;;;;;;;;0.00;0.00;;;;;;;;5225001;28;8848;-71
2023/04/13 08:52:57;;;;;;;;;0.40;0.00;;;;;;;;5208192;28;9517;-71
2023/04/13 08:55:29;;;;;;;;;0.00;0.00;;;;;;;;5225324;28;8778;-71
2023/04/13 08:58:03;;;;;;;;;1.00;1.00;;;;;;;;5208495;28;8786;-71
2023/04/13 09:00:34;;;;;;;;;0.00;0.00;;;;;;;;5208812;28;8824;-72
2023/04/13 09:03:06;;;;;;;;;1.00;1.00;;;;;;;;5208263;28;8778;-72
2023/04/13 09:05:40;;;;;;;;;0.00;0.00;;;;;;;;5217417;28;8839;-72
2023/04/13 09:08:12;;;;;;;;;0.20;0.20;;;;;;;;5224769;28;8778;-72
2023/04/13 09:10:48;;;;;;;;;0.00;0.00;;;;;;;;5225152;28;8782;-72
2023/04/13 09:13:19;;;;;;;;;0.00;0.00;;;;;;;;5224625;28;8837;-72
2023/04/13 09:15:51;;;;;;;;;0.60;0.60;;;;;;;;5224666;28;9521;-72
2023/04/13 09:18:28;;;;;;;;;5.00;5.00;;;;;;;;5209187;28;8804;-71
2023/04/13 09:21:05;;;;;;;;;0.00;0.00;;;;;;;;5242278;28;8768;-72
2023/04/13 09:23:36;;;;;;;;;0.00;0.00;;;;;;;;5209875;28;8790;-72
2023/04/13 09:26:07;;;;;;;;;0.00;0.00;;;;;;;;5208083;28;8807;-72
2023/04/13 09:28:46;;;;;;;;;0.00;0.00;;;;;;;;5225727;28;11590;-73
2023/04/13 09:31:17;;;;;;;;;0.00;0.00;;;;;;;;5224487;28;8794;-73
2023/04/13 09:33:49;;;;;;;;;2.80;2.20;;;;;;;;5191410;28;9650;-72
2023/04/13 09:36:21;;;;;;;;;0.80;0.80;;;;;;;;5224216;28;9497;-72
2023/04/13 09:39:13;;;;;;;;;1.00;1.00;;;;;;;;5232486;28;8795;-72
2023/04/13 09:41:48;;;;;;;;;0.20;0.20;;;;;;;;5244873;28;8910;-72
2023/04/13 09:44:19;;;;;;;;;0.00;0.00;;;;;;;;5243854;28;8819;-72
2023/04/13 09:47:00;;;;;;;;;0.40;0.40;;;;;;;;5244906;28;8790;-72
2023/04/13 09:49:38;;;;;;;;;1.00;1.00;;;;;;;;5246511;28;8779;-78
2023/04/13 09:52:22;;;;;;;;;0.00;0.00;;;;;;;;5212044;28;8795;-79
2023/04/13 09:55:18;;;;;;;;;0.00;0.00;;;;;;;;5231058;28;8811;-80
2023/04/13 09:57:49;;;;;;;;;0.80;0.80;;;;;;;;5208006;28;8856;-80
2023/04/13 10:00:20;;;;;;;;;1.00;1.00;;;;;;;;5207621;28;8820;-79
2023/04/13 10:02:52;;;;;;;;;0.00;0.00;;;;;;;;5207697;28;8936;-78
2023/04/13 10:05:25;;;;;;;;;0.00;0.00;;;;;;;;5191192;28;8920;-79
2023/04/13 10:07:57;;;;;;;;;0.00;0.00;;;;;;;;5191234;28;8778;-79
2023/04/13 10:10:28;;;;;;;;;0.00;0.00;;;;;;;;5193018;28;8817;-79
2023/04/13 10:13:02;;;;;;;;;0.00;0.00;;;;;;;;5191048;28;8852;-81
2023/04/13 10:15:53;;;;;;;;;0.00;0.00;;;;;;;;5191265;28;8786;-80
2023/04/13 10:18:24;;;;;;;;;0.00;0.00;;;;;;;;5181162;28;8835;-81
2023/04/13 10:20:58;;;;;;;;;0.00;0.00;;;;;;;;5207634;28;8916;-79
2023/04/13 10:23:30;;;;;;;;;0.00;0.00;;;;;;;;5234764;28;8853;-79
2023/04/13 10:26:02;;;;;;;;;0.00;0.00;;;;;;;;5191740;28;9568;-79
2023/04/13 10:28:43;;;;;;;;;1.80;1.80;;;;;;;;5191860;28;8868;-80
2023/04/13 10:31:15;;;;;;;;;9.00;8.00;;;;;;;;5208029;28;8813;-81
2023/04/13 10:33:47;;;;;;;;;6.60;6.60;;;;;;;;5191001;28;8833;-81
2023/04/13 10:36:45;;;;;;;;;0.00;0.00;;;;;;;;5209878;28;8813;-81
2023/04/13 10:39:36;;;;;;;;;0.00;0.00;;;;;;;;5203321;28;8848;-82
2023/04/13 10:42:26;;;;;;;;;0.20;0.20;;;;;;;;5229628;28;8811;-81
2023/04/13 10:44:58;;;;;;;;;0.00;0.00;;;;;;;;5211432;28;9514;-81
2023/04/13 10:47:34;;;;;;;;;0.20;0.20;;;;;;;;5211417;28;8844;-79
2023/04/13 10:50:14;;;;;;;;;0.00;0.00;;;;;;;;5211530;28;8791;-80
2023/04/13 10:53:05;;;;;;;;;0.00;0.00;;;;;;;;5211458;28;8811;-81
2023/04/13 10:55:36;;;;;;;;;0.00;0.00;;;;;;;;5206516;28;8802;-80
2023/04/13 10:58:15;;;;;;;;;0.00;0.00;;;;;;;;5193807;28;8786;-80
2023/04/13 11:00:47;;;;;;;;;0.00;0.00;;;;;;;;5211167;28;8794;-80
2023/04/13 11:03:18;;;;;;;;;1.00;1.00;;;;;;;;5208493;28;8789;-80
2023/04/13 11:05:56;;;;;;;;;9.60;9.20;;;;;;;;5227552;28;8900;-80
2023/04/13 11:08:28;;;;;;;;;0.00;0.00;;;;;;;;5227758;28;8892;-81
2023/04/13 11:10:59;;;;;;;;;0.20;0.20;;;;;;;;5228106;28;8801;-81
2023/04/13 11:13:30;;;;;;;;;0.00;0.00;;;;;;;;5227740;28;8825;-81
2023/04/13 11:16:05;;;;;;;;;0.00;0.00;;;;;;;;5228875;28;8790;-81
2023/04/13 11:18:36;;;;;;;;;3.80;3.80;;;;;;;;5216003;28;8824;-80
2023/04/13 11:21:26;;;;;;;;;0.00;0.00;;;;;;;;5226538;28;8928;-80
2023/04/13 11:24:01;;;;;;;;;7.60;7.60;;;;;;;;5210574;28;8915;-73
2023/04/13 11:26:51;;;;;;;;;0.00;0.00;;;;;;;;5212849;28;8859;-81
2023/04/13 11:29:22;;;;;;;;;1.40;1.40;;;;;;;;5210033;28;9020;-80
2023/04/13 11:31:53;;;;;;;;;5.50;4.00;;;;;;;;5226651;28;9635;-73
2023/04/13 11:34:25;;;;;;;;;2.25;1.75;;;;;;;;5209931;28;9403;-72
2023/04/13 11:36:59;;;;;;;;;1.60;1.60;;;;;;;;5240382;28;10324;-73
2023/04/13 11:39:31;;;;;;;;;1.00;1.00;;;;;;;;5242485;28;8803;-73
2023/04/13 11:42:05;;;;;;;;;2.60;2.60;;;;;;;;5209935;28;8794;-73
2023/04/13 11:44:37;;;;;;;;;6.00;6.00;;;;;;;;5226575;28;8819;-72
2023/04/13 11:47:12;;;;;;;;;1.00;1.00;;;;;;;;5226518;28;8786;-73
2023/04/13 11:50:02;;;;;;;;;5.80;2.80;;;;;;;;5226735;28;9539;-73
2023/04/13 11:52:35;;;;;;;;;0.20;0.20;;;;;;;;5227279;28;8790;-73
2023/04/13 11:55:06;;;;;;;;;1.60;1.60;;;;;;;;5234093;28;8823;-73
2023/04/13 11:57:39;;;;;;;;;3.80;3.80;;;;;;;;5235556;28;8829;-73
2023/04/13 12:00:17;;;;;;;;;3.40;2.80;;;;;;;;5209570;28;8816;-73
2023/04/13 12:02:52;;;;;;;;;7.80;6.80;;;;;;;;5226326;28;8871;-73
2023/04/13 12:05:24;;;;;;;;;14.20;14.20;;;;;;;;5209456;28;8884;-72
2023/04/13 12:07:56;;;;;;;;;63.00;50.40;;;;;;;;5225733;28;8805;-72
2023/04/13 12:10:45;;;;;;;;;0.00;0.00;;;;;;;;5227735;28;8786;-72
2023/04/13 12:13:16;;;;;;;;;1.80;1.80;;;;;;;;5243532;28;8807;-72
2023/04/13 12:15:49;;;;;;;;;0.00;0.00;;;;;;;;5244286;28;8772;-72
2023/04/13 12:18:20;;;;;;;;;0.00;0.00;;;;;;;;5225762;28;8778;-72
2023/04/13 12:20:51;;;;;;;;;1.00;1.00;;;;;;;;5225632;28;8810;-74
2023/04/13 12:23:23;;;;;;;;;0.00;0.00;;;;;;;;5226152;28;8797;-74
2023/04/13 12:25:59;;;;;;;;;0.60;0.60;;;;;;;;5226965;28;8774;-74
2023/04/13 12:28:31;;;;;;;;;2.80;2.80;;;;;;;;5226940;28;9532;-73
2023/04/13 12:31:06;;;;;;;;;0.00;0.00;;;;;;;;5209087;28;9493;-72
2023/04/13 12:33:38;;;;;;;;;0.40;0.40;;;;;;;;5225763;28;8849;-73
2023/04/13 12:36:11;;;;;;;;;0.00;0.00;;;;;;;;5215584;28;8798;-72
2023/04/13 12:38:42;;;;;;;;;1.00;1.00;;;;;;;;5225469;28;8778;-72
2023/04/13 12:41:14;;;;;;;;;0.00;0.00;;;;;;;;5225215;28;8790;-73
2023/04/13 12:43:44;;;;;;;;;0.00;0.00;;;;;;;;5225276;28;8778;-72
2023/04/13 12:46:16;;;;;;;;;0.00;0.00;;;;;;;;5225252;28;8875;-72
2023/04/13 12:48:47;;;;;;;;;2.80;2.80;;;;;;;;5226310;28;8785;-72
2023/04/13 12:51:18;;;;;;;;;3.80;1.00;;;;;;;;5225735;28;9639;-72
2023/04/13 12:53:49;;;;;;;;;0.00;0.00;;;;;;;;5224871;28;8999;-72
2023/04/13 12:56:19;;;;;;;;;0.00;0.00;;;;;;;;5226053;28;8818;-73
2023/04/13 12:58:50;;;;;;;;;2.00;2.00;;;;;;;;5225263;28;8770;-71
2023/04/13 13:01:21;;;;;;;;;0.00;0.00;;;;;;;;5208363;28;8801;-74
2023/04/13 13:03:53;;;;;;;;;0.00;0.00;;;;;;;;5226349;28;8859;-74
2023/04/13 13:06:24;;;;;;;;;0.00;0.00;;;;;;;;5240367;28;8799;-77
2023/04/13 13:08:55;;;;;;;;;0.20;0.20;;;;;;;;5227599;28;8810;-73
2023/04/13 13:11:27;;;;;;;;;1.00;1.00;;;;;;;;5244167;28;8795;-73
2023/04/13 13:13:59;;;;;;;;;1.00;1.00;;;;;;;;5244467;28;8811;-73
2023/04/13 13:16:29;;;;;;;;;0.75;0.75;;;;;;;;5245039;28;8822;-75
2023/04/13 13:19:01;;;;;;;;;0.40;0.40;;;;;;;;5244576;28;8782;-74
2023/04/13 13:21:50;;;;;;;;;7.00;6.00;;;;;;;;5245392;28;8779;-72
2023/04/13 13:24:40;;;;;;;;;1.20;1.20;;;;;;;;5246335;28;8831;-72
2023/04/13 13:27:11;;;;;;;;;1.00;1.00;;;;;;;;5245167;28;8771;-72
2023/04/13 13:29:42;;;;;;;;;0.40;0.40;;;;;;;;5243555;28;8811;-72
2023/04/13 13:32:13;;;;;;;;;2.40;2.40;;;;;;;;5246060;28;8779;-72
2023/04/13 13:34:44;;;;;;;;;1.75;1.75;;;;;;;;5207859;28;8845;-71
2023/04/13 13:37:15;;;;;;;;;0.20;0.00;;;;;;;;5224286;28;10004;-72
2023/04/13 13:40:11;;;;;;;;;0.00;0.00;;;;;;;;5224063;28;8782;-72
2023/04/13 13:42:44;;;;;;;;;0.00;0.00;;;;;;;;5243718;28;8868;-72
2023/04/13 13:45:33;;;;;;;;;0.60;0.60;;;;;;;;5245480;28;8783;-72
2023/04/13 13:48:06;;;;;;;;;10.40;10.40;;;;;;;;5228362;28;8794;-71
2023/04/13 13:50:49;;;;;;;;;6.80;6.20;;;;;;;;5207807;28;9497;-73
2023/04/13 13:53:21;;;;;;;;;4.60;4.60;;;;;;;;5208105;28;8910;-71
2023/04/13 13:55:52;;;;;;;;;0.60;0.60;;;;;;;;5207418;28;8785;-72
2023/04/13 13:58:23;;;;;;;;;11.60;11.60;;;;;;;;5230011;28;8926;-72
2023/04/13 14:00:54;;;;;;;;;8.25;8.25;;;;;;;;5244218;28;9645;-72
2023/04/13 14:03:44;;;;;;;;;13.80;13.20;;;;;;;;5244549;28;11519;-73
2023/04/13 14:06:15;;;;;;;;;64.80;46.00;;;;;;;;5241086;28;8861;-71
2023/04/13 14:09:05;;;;;;;;;0.00;0.00;;;;;;;;5233808;28;8929;-72
2023/04/13 14:11:36;;;;;;;;;0.00;0.00;;;;;;;;5226492;28;8821;-72
2023/04/13 14:14:07;;;;;;;;;31.25;31.25;;;;;;;;5207237;28;8919;-72
2023/04/13 14:16:38;;;;;;;;;9.75;9.75;;;;;;;;5224336;28;9985;-72
2023/04/13 14:19:08;;;;;;;;;58.50;48.00;;;;;;;;5226181;28;8805;-72
2023/04/13 14:21:41;;;;;;;;;28.50;27.75;;;;;;;;5221696;28;11649;-71
2023/04/13 14:24:12;;;;;;;;;0.00;0.00;;;;;;;;5225000;28;9478;-72
2023/04/13 14:26:43;;;;;;;;;8.50;7.00;;;;;;;;5221542;28;8820;-72
2023/04/13 14:29:14;;;;;;;;;4.60;4.60;;;;;;;;5221798;28;8785;-72
2023/04/13 14:31:45;;;;;;;;;14.20;14.20;;;;;;;;5222984;28;8828;-71
2023/04/13 14:34:34;;;;;;;;;2.00;2.00;;;;;;;;5225744;28;8817;-74
2023/04/13 14:37:05;;;;;;;;;0.00;0.00;;;;;;;;5226306;28;8797;-72
2023/04/13 14:39:36;;;;;;;;;4.00;4.00;;;;;;;;5209532;28;8805;-72
2023/04/13 14:42:08;;;;;;;;;0.00;0.00;;;;;;;;5222719;28;8797;-72
2023/04/13 14:44:38;;;;;;;;;14.00;14.00;;;;;;;;5226901;28;8809;-72
2023/04/13 14:47:11;;;;;;;;;20.75;19.00;;;;;;;;5213161;28;8823;-72
2023/04/13 14:50:00;;;;;;;;;27.80;27.80;;;;;;;;5229020;28;11646;-72
2023/04/13 14:52:32;;;;;;;;;10.00;9.00;;;;;;;;5249685;28;8782;-72
2023/04/13 14:55:03;;;;;;;;;4.25;4.25;;;;;;;;5249699;28;8822;-72
2023/04/13 14:57:53;;;;;;;;;7.60;7.60;;;;;;;;5231989;28;8806;-72
2023/04/13 15:00:39;;;;;;;;;15.20;14.00;;;;;;;;5235795;28;8806;-72
2023/04/13 15:03:11;;;;;;;;;4.40;4.40;;;;;;;;5231037;28;8817;-73
2023/04/13 15:05:47;;;;;;;;;12.00;11.40;;;;;;;;5226398;28;8929;-72
2023/04/13 15:08:21;;;;;;;;;38.80;37.40;;;;;;;;5226352;28;8837;-72
2023/04/13 15:10:52;;;;;;;;;41.80;34.80;;;;;;;;5226271;28;8792;-73
2023/04/13 15:13:23;;;;;;;;;18.20;18.20;;;;;;;;5225093;28;8898;-72
2023/04/13 15:15:54;;;;;;;;;9.75;9.75;;;;;;;;5214252;28;8810;-72
2023/04/13 15:18:25;;;;;;;;;11.80;10.40;;;;;;;;5224861;28;9527;-72
2023/04/13 15:21:00;;;;;;;;;11.40;11.40;;;;;;;;5225253;28;9509;-72
2023/04/13 15:23:31;;;;;;;;;3.80;3.80;;;;;;;;5224906;28;8817;-72
2023/04/13 15:26:22;;;;;;;;;5.80;5.80;;;;;;;;5224350;28;8914;-72
2023/04/13 15:29:12;;;;;;;;;12.00;12.00;;;;;;;;5225058;28;9648;-72
2023/04/13 15:31:43;;;;;;;;;16.80;16.80;;;;;;;;5229533;28;8832;-71
2023/04/13 15:34:14;;;;;;;;;0.00;0.00;;;;;;;;5231827;28;8827;-71
2023/04/13 15:36:45;;;;;;;;;1.00;1.00;;;;;;;;5228391;28;10327;-72
2023/04/13 15:39:16;;;;;;;;;4.25;4.25;;;;;;;;5246911;28;8795;-72
2023/04/13 15:41:47;;;;;;;;;1.00;0.80;;;;;;;;5212689;28;8872;-72